sensor_id;sensor_type;location;lat;lon;timestamp;temperature;humidity
2300;DHT22;1158;48.750;9.078;2023-05-06T00:02:16;12.60;99.90
2300;DHT22;1158;48.750;9.078;2023-05-06T00:04:44;12.60;99.90
2300;DHT22;1158;48.750;9.078;2023-05-06T00:07:11;12.60;99.90
2300;DHT22;1158;48.750;9.078;2023-05-06T00:09:38;12.50;99.90
2300;DHT22;1158;48.750;9.078;2023-05-06T00:12:05;12.50;99.90
2300;DHT22;1158;48.750;9.078;2023-05-06T00:14:32;12.50;99.90
2300;DHT22;1158;48.750;9.078;2023-05-06T00:16:59;12.50;99.90
2300;DHT22;1158;48.750;9.078;2023-05-06T00:19:25;12.40;99.90
2300;DHT22;1158;48.750;9.078;2023-05-06T00:21:53;12.30;99.90
2300;DHT22;1158;48.750;9.078;2023-05-06T00:24:20;12.30;99.90
2300;DHT22;1158;48.750;9.078;2023-05-06T00:26:47;12.20;99.90
2300;DHT22;1158;48.750;9.078;2023-05-06T00:29:14;12.10;99.90
2300;DHT22;1158;48.750;9.078;2023-05-06T00:31:40;12.00;99.90
2300;DHT22;1158;48.750;9.078;2023-05-06T00:34:07;11.90;99.90
2300;DHT22;1158;48.750;9.078;2023-05-06T00:36:34;11.80;99.90
2300;DHT22;1158;48.750;9.078;2023-05-06T00:39:02;11.80;99.90
2300;DHT22;1158;48.750;9.078;2023-05-06T00:41:30;11.80;99.90
2300;DHT22;1158;48.750;9.078;2023-05-06T00:43:58;11.80;99.90
2300;DHT22;1158;48.750;9.078;2023-05-06T00:46:25;11.80;99.90
2300;DHT22;1158;48.750;9.078;2023-05-06T00:48:51;11.80;99.90
2300;DHT22;1158;48.750;9.078;2023-05-06T00:51:18;11.80;99.90
2300;DHT22;1158;48.750;9.078;2023-05-06T00:53:45;11.70;99.90
2300;DHT22;1158;48.750;9.078;2023-05-06T00:56:13;11.70;99.90
2300;DHT22;1158;48.750;9.078;2023-05-06T00:58:42;11.60;99.90
2300;DHT22;1158;48.750;9.078;2023-05-06T01:01:09;11.60;99.90
2300;DHT22;1158;48.750;9.078;2023-05-06T01:03:37;11.60;99.90
2300;DHT22;1158;48.750;9.078;2023-05-06T01:06:12;11.60;99.90
2300;DHT22;1158;48.750;9.078;2023-05-06T01:08:46;11.60;99.90
2300;DHT22;1158;48.750;9.078;2023-05-06T01:11:23;11.60;99.90
2300;DHT22;1158;48.750;9.078;2023-05-06T01:13:57;11.50;99.90
2300;DHT22;1158;48.750;9.078;2023-05-06T01:16:27;11.60;99.90
2300;DHT22;1158;48.750;9.078;2023-05-06T01:18:56;11.60;99.90
2300;DHT22;1158;48.750;9.078;2023-05-06T01:21:24;11.60;99.90
2300;DHT22;1158;48.750;9.078;2023-05-06T01:24:00;11.60;99.90
2300;DHT22;1158;48.750;9.078;2023-05-06T01:26:27;11.60;99.90
2300;DHT22;1158;48.750;9.078;2023-05-06T01:28:55;11.60;99.90
2300;DHT22;1158;48.750;9.078;2023-05-06T01:31:35;11.60;99.90
2300;DHT22;1158;48.750;9.078;2023-05-06T01:34:11;11.50;99.90
2300;DHT22;1158;48.750;9.078;2023-05-06T01:36:44;11.50;99.90
2300;DHT22;1158;48.750;9.078;2023-05-06T01:39:17;11.50;99.90
2300;DHT22;1158;48.750;9.078;2023-05-06T01:41:46;11.50;99.90
2300;DHT22;1158;48.750;9.078;2023-05-06T01:44:14;11.50;99.90
2300;DHT22;1158;48.750;9.078;2023-05-06T01:46:43;11.50;99.90
2300;DHT22;1158;48.750;9.078;2023-05-06T01:49:10;11.50;99.90
2300;DHT22;1158;48.750;9.078;2023-05-06T01:51:38;11.50;99.90
2300;DHT22;1158;48.750;9.078;2023-05-06T01:54:05;11.50;99.90
2300;DHT22;1158;48.750;9.078;2023-05-06T01:56:33;11.50;99.90
2300;DHT22;1158;48.750;9.078;2023-05-06T01:59:00;11.50;99.90
2300;DHT22;1158;48.750;9.078;2023-05-06T02:01:26;11.50;99.90
2300;DHT22;1158;48.750;9.078;2023-05-06T02:03:53;11.50;99.90
2300;DHT22;1158;48.750;9.078;2023-05-06T02:06:20;11.50;99.90
2300;DHT22;1158;48.750;9.078;2023-05-06T02:08:47;11.50;99.90
2300;DHT22;1158;48.750;9.078;2023-05-06T02:11:14;11.50;99.90
2300;DHT22;1158;48.750;9.078;2023-05-06T02:13:42;11.40;99.90
2300;DHT22;1158;48.750;9.078;2023-05-06T02:16:09;11.50;99.90
2300;DHT22;1158;48.750;9.078;2023-05-06T02:18:36;11.40;99.90
2300;DHT22;1158;48.750;9.078;2023-05-06T02:21:03;11.50;99.90
2300;DHT22;1158;48.750;9.078;2023-05-06T02:23:30;11.50;99.90
2300;DHT22;1158;48.750;9.078;2023-05-06T02:25:56;11.50;99.90
2300;DHT22;1158;48.750;9.078;2023-05-06T02:28:23;11.50;99.90
2300;DHT22;1158;48.750;9.078;2023-05-06T02:30:55;11.50;99.90
2300;DHT22;1158;48.750;9.078;2023-05-06T02:33:22;11.50;99.90
2300;DHT22;1158;48.750;9.078;2023-05-06T02:35:49;11.50;99.90
2300;DHT22;1158;48.750;9.078;2023-05-06T02:38:16;11.50;99.90
2300;DHT22;1158;48.750;9.078;2023-05-06T02:40:42;11.50;99.90
2300;DHT22;1158;48.750;9.078;2023-05-06T02:43:09;11.50;99.90
2300;DHT22;1158;48.750;9.078;2023-05-06T02:45:36;11.50;99.90
2300;DHT22;1158;48.750;9.078;2023-05-06T02:48:05;11.50;99.90
2300;DHT22;1158;48.750;9.078;2023-05-06T02:50:32;11.50;99.90
2300;DHT22;1158;48.750;9.078;2023-05-06T02:52:59;11.50;99.90
2300;DHT22;1158;48.750;9.078;2023-05-06T02:55:26;11.50;99.90
2300;DHT22;1158;48.750;9.078;2023-05-06T02:57:52;11.40;99.90
2300;DHT22;1158;48.750;9.078;2023-05-06T03:00:19;11.40;99.90
2300;DHT22;1158;48.750;9.078;2023-05-06T03:02:46;11.40;99.90
2300;DHT22;1158;48.750;9.078;2023-05-06T03:05:14;11.30;99.90
2300;DHT22;1158;48.750;9.078;2023-05-06T03:07:41;11.40;99.90
2300;DHT22;1158;48.750;9.078;2023-05-06T03:10:08;11.30;99.90
2300;DHT22;1158;48.750;9.078;2023-05-06T03:12:35;11.40;99.90
2300;DHT22;1158;48.750;9.078;2023-05-06T03:15:02;11.40;99.90
2300;DHT22;1158;48.750;9.078;2023-05-06T03:17:29;11.40;99.90
2300;DHT22;1158;48.750;9.078;2023-05-06T03:19:56;11.40;99.90
2300;DHT22;1158;48.750;9.078;2023-05-06T03:22:24;11.40;99.90
2300;DHT22;1158;48.750;9.078;2023-05-06T03:24:50;11.50;99.90
2300;DHT22;1158;48.750;9.078;2023-05-06T03:27:17;11.50;99.90
2300;DHT22;1158;48.750;9.078;2023-05-06T03:29:44;11.50;99.90
2300;DHT22;1158;48.750;9.078;2023-05-06T03:32:11;11.50;99.90
2300;DHT22;1158;48.750;9.078;2023-05-06T03:34:37;11.50;99.90
2300;DHT22;1158;48.750;9.078;2023-05-06T03:37:04;11.50;99.90
2300;DHT22;1158;48.750;9.078;2023-05-06T03:39:32;11.50;99.90
2300;DHT22;1158;48.750;9.078;2023-05-06T03:41:59;11.40;99.90
2300;DHT22;1158;48.750;9.078;2023-05-06T03:44:26;11.40;99.90
2300;DHT22;1158;48.750;9.078;2023-05-06T03:46:53;11.40;99.90
2300;DHT22;1158;48.750;9.078;2023-05-06T03:49:20;11.30;99.90
2300;DHT22;1158;48.750;9.078;2023-05-06T03:51:47;11.20;99.90
2300;DHT22;1158;48.750;9.078;2023-05-06T03:54:13;11.20;99.90
2300;DHT22;1158;48.750;9.078;2023-05-06T03:56:41;11.10;99.90
2300;DHT22;1158;48.750;9.078;2023-05-06T03:59:08;11.00;99.90
2300;DHT22;1158;48.750;9.078;2023-05-06T04:01:35;11.00;99.90
2300;DHT22;1158;48.750;9.078;2023-05-06T04:04:02;10.90;99.90
2300;DHT22;1158;48.750;9.078;2023-05-06T04:06:28;10.80;99.90
2300;DHT22;1158;48.750;9.078;2023-05-06T04:08:55;10.70;99.90
2300;DHT22;1158;48.750;9.078;2023-05-06T04:11:22;10.60;99.90
2300;DHT22;1158;48.750;9.078;2023-05-06T04:13:51;10.60;99.90
2300;DHT22;1158;48.750;9.078;2023-05-06T04:16:17;10.50;99.90
2300;DHT22;1158;48.750;9.078;2023-05-06T04:18:44;10.50;99.90
2300;DHT22;1158;48.750;9.078;2023-05-06T04:21:12;10.40;99.90
2300;DHT22;1158;48.750;9.078;2023-05-06T04:23:39;10.40;99.90
2300;DHT22;1158;48.750;9.078;2023-05-06T04:26:06;10.40;99.90
2300;DHT22;1158;48.750;9.078;2023-05-06T04:28:32;10.40;99.90
2300;DHT22;1158;48.750;9.078;2023-05-06T04:31:00;10.40;99.90
2300;DHT22;1158;48.750;9.078;2023-05-06T04:33:27;10.30;99.90
2300;DHT22;1158;48.750;9.078;2023-05-06T04:35:54;10.30;99.90
2300;DHT22;1158;48.750;9.078;2023-05-06T04:38:21;10.30;99.90
2300;DHT22;1158;48.750;9.078;2023-05-06T04:40:50;10.30;99.90
2300;DHT22;1158;48.750;9.078;2023-05-06T04:43:17;10.40;99.90
2300;DHT22;1158;48.750;9.078;2023-05-06T04:45:43;10.40;99.90
2300;DHT22;1158;48.750;9.078;2023-05-06T04:48:16;10.50;99.90
2300;DHT22;1158;48.750;9.078;2023-05-06T04:50:43;10.50;99.90
2300;DHT22;1158;48.750;9.078;2023-05-06T04:53:11;10.50;99.90
2300;DHT22;1158;48.750;9.078;2023-05-06T04:55:37;10.50;99.90
2300;DHT22;1158;48.750;9.078;2023-05-06T04:58:04;10.50;99.90
2300;DHT22;1158;48.750;9.078;2023-05-06T05:00:32;10.60;99.90
2300;DHT22;1158;48.750;9.078;2023-05-06T05:02:59;10.50;99.90
2300;DHT22;1158;48.750;9.078;2023-05-06T05:05:27;10.60;99.90
2300;DHT22;1158;48.750;9.078;2023-05-06T05:07:54;10.80;99.90
2300;DHT22;1158;48.750;9.078;2023-05-06T05:10:21;10.80;99.90
2300;DHT22;1158;48.750;9.078;2023-05-06T05:12:48;10.90;99.90
2300;DHT22;1158;48.750;9.078;2023-05-06T05:15:15;11.00;99.90
2300;DHT22;1158;48.750;9.078;2023-05-06T05:17:41;11.20;99.90
2300;DHT22;1158;48.750;9.078;2023-05-06T05:20:09;11.30;99.90
2300;DHT22;1158;48.750;9.078;2023-05-06T05:22:37;11.40;99.90
2300;DHT22;1158;48.750;9.078;2023-05-06T05:25:04;11.50;99.90
2300;DHT22;1158;48.750;9.078;2023-05-06T05:27:31;11.80;99.90
2300;DHT22;1158;48.750;9.078;2023-05-06T05:29:59;12.00;99.90
2300;DHT22;1158;48.750;9.078;2023-05-06T05:32:26;12.20;99.90
2300;DHT22;1158;48.750;9.078;2023-05-06T05:34:53;12.40;99.90
2300;DHT22;1158;48.750;9.078;2023-05-06T05:37:20;12.60;99.90
2300;DHT22;1158;48.750;9.078;2023-05-06T05:39:48;13.10;99.90
2300;DHT22;1158;48.750;9.078;2023-05-06T05:42:15;13.80;99.90
2300;DHT22;1158;48.750;9.078;2023-05-06T05:44:42;14.50;99.90
2300;DHT22;1158;48.750;9.078;2023-05-06T05:47:09;15.30;99.90
2300;DHT22;1158;48.750;9.078;2023-05-06T05:49:35;15.90;99.90
2300;DHT22;1158;48.750;9.078;2023-05-06T05:52:02;16.40;99.90
2300;DHT22;1158;48.750;9.078;2023-05-06T05:54:29;17.30;99.90
2300;DHT22;1158;48.750;9.078;2023-05-06T05:56:57;18.00;99.90
2300;DHT22;1158;48.750;9.078;2023-05-06T05:59:24;18.40;99.90
2300;DHT22;1158;48.750;9.078;2023-05-06T06:01:51;18.80;99.90
2300;DHT22;1158;48.750;9.078;2023-05-06T06:04:17;19.20;99.90
2300;DHT22;1158;48.750;9.078;2023-05-06T06:06:45;19.30;99.90
2300;DHT22;1158;48.750;9.078;2023-05-06T06:09:12;19.30;99.90
2300;DHT22;1158;48.750;9.078;2023-05-06T06:11:39;18.60;99.90
2300;DHT22;1158;48.750;9.078;2023-05-06T06:14:07;18.70;99.90
2300;DHT22;1158;48.750;9.078;2023-05-06T06:16:35;19.10;99.90
2300;DHT22;1158;48.750;9.078;2023-05-06T06:19:02;18.70;99.90
2300;DHT22;1158;48.750;9.078;2023-05-06T06:21:28;18.60;99.90
2300;DHT22;1158;48.750;9.078;2023-05-06T06:23:55;18.60;99.90
2300;DHT22;1158;48.750;9.078;2023-05-06T06:26:22;19.00;99.90
2300;DHT22;1158;48.750;9.078;2023-05-06T06:28:49;19.40;99.90
2300;DHT22;1158;48.750;9.078;2023-05-06T06:31:17;19.30;99.90
2300;DHT22;1158;48.750;9.078;2023-05-06T06:33:44;19.40;99.90
2300;DHT22;1158;48.750;9.078;2023-05-06T06:36:10;20.00;99.90
2300;DHT22;1158;48.750;9.078;2023-05-06T06:38:37;20.40;99.90
2300;DHT22;1158;48.750;9.078;2023-05-06T06:41:04;21.20;99.90
2300;DHT22;1158;48.750;9.078;2023-05-06T06:43:31;21.70;99.90
2300;DHT22;1158;48.750;9.078;2023-05-06T06:45:58;22.60;99.90
2300;DHT22;1158;48.750;9.078;2023-05-06T06:48:26;22.20;99.90
2300;DHT22;1158;48.750;9.078;2023-05-06T06:50:53;22.50;99.90
2300;DHT22;1158;48.750;9.078;2023-05-06T06:53:20;22.80;99.90
2300;DHT22;1158;48.750;9.078;2023-05-06T06:55:46;23.10;99.90
2300;DHT22;1158;48.750;9.078;2023-05-06T06:58:13;23.40;99.90
2300;DHT22;1158;48.750;9.078;2023-05-06T07:00:40;23.40;99.90
2300;DHT22;1158;48.750;9.078;2023-05-06T07:03:06;23.10;99.90
2300;DHT22;1158;48.750;9.078;2023-05-06T07:05:35;22.00;99.90
2300;DHT22;1158;48.750;9.078;2023-05-06T07:08:01;21.40;99.90
2300;DHT22;1158;48.750;9.078;2023-05-06T07:10:28;20.60;99.90
2300;DHT22;1158;48.750;9.078;2023-05-06T07:12:55;19.70;99.90
2300;DHT22;1158;48.750;9.078;2023-05-06T07:15:23;19.60;99.90
2300;DHT22;1158;48.750;9.078;2023-05-06T07:17:50;19.70;99.90
2300;DHT22;1158;48.750;9.078;2023-05-06T07:20:17;18.80;99.90
2300;DHT22;1158;48.750;9.078;2023-05-06T07:22:45;18.60;99.90
2300;DHT22;1158;48.750;9.078;2023-05-06T07:25:12;18.80;99.90
2300;DHT22;1158;48.750;9.078;2023-05-06T07:27:39;19.50;99.90
2300;DHT22;1158;48.750;9.078;2023-05-06T07:30:06;20.80;99.90
2300;DHT22;1158;48.750;9.078;2023-05-06T07:32:33;21.90;99.90
2300;DHT22;1158;48.750;9.078;2023-05-06T07:35:00;23.20;99.90
2300;DHT22;1158;48.750;9.078;2023-05-06T07:37:27;24.10;98.60
2300;DHT22;1158;48.750;9.078;2023-05-06T07:39:55;23.60;98.20
2300;DHT22;1158;48.750;9.078;2023-05-06T07:42:22;24.80;96.40
2300;DHT22;1158;48.750;9.078;2023-05-06T07:44:49;23.60;96.90
2300;DHT22;1158;48.750;9.078;2023-05-06T07:47:25;24.70;95.50
2300;DHT22;1158;48.750;9.078;2023-05-06T07:49:51;23.10;96.60
2300;DHT22;1158;48.750;9.078;2023-05-06T07:52:18;22.60;97.60
2300;DHT22;1158;48.750;9.078;2023-05-06T07:54:45;23.80;98.10
2300;DHT22;1158;48.750;9.078;2023-05-06T07:57:13;24.50;96.90
2300;DHT22;1158;48.750;9.078;2023-05-06T07:59:40;23.30;95.60
2300;DHT22;1158;48.750;9.078;2023-05-06T08:02:07;22.60;96.70
2300;DHT22;1158;48.750;9.078;2023-05-06T08:04:34;21.40;98.30
2300;DHT22;1158;48.750;9.078;2023-05-06T08:07:04;20.90;98.70
2300;DHT22;1158;48.750;9.078;2023-05-06T08:09:31;22.30;99.00
2300;DHT22;1158;48.750;9.078;2023-05-06T08:11:58;23.30;96.80
2300;DHT22;1158;48.750;9.078;2023-05-06T08:14:26;23.00;96.00
2300;DHT22;1158;48.750;9.078;2023-05-06T08:16:53;22.30;96.90
2300;DHT22;1158;48.750;9.078;2023-05-06T08:19:21;22.10;97.60
2300;DHT22;1158;48.750;9.078;2023-05-06T08:21:48;21.90;97.50
2300;DHT22;1158;48.750;9.078;2023-05-06T08:24:16;22.30;98.10
2300;DHT22;1158;48.750;9.078;2023-05-06T08:26:43;23.50;95.30
2300;DHT22;1158;48.750;9.078;2023-05-06T08:29:10;23.80;95.80
2300;DHT22;1158;48.750;9.078;2023-05-06T08:31:38;25.40;93.30
2300;DHT22;1158;48.750;9.078;2023-05-06T08:34:04;26.10;92.70
2300;DHT22;1158;48.750;9.078;2023-05-06T08:36:31;26.80;91.40
2300;DHT22;1158;48.750;9.078;2023-05-06T08:38:58;27.10;90.20
2300;DHT22;1158;48.750;9.078;2023-05-06T08:41:25;26.50;90.00
2300;DHT22;1158;48.750;9.078;2023-05-06T08:43:56;26.30;91.00
2300;DHT22;1158;48.750;9.078;2023-05-06T08:46:24;25.10;90.90
2300;DHT22;1158;48.750;9.078;2023-05-06T08:48:53;24.10;93.10
2300;DHT22;1158;48.750;9.078;2023-05-06T08:51:22;22.40;95.30
2300;DHT22;1158;48.750;9.078;2023-05-06T08:53:53;21.50;97.40
2300;DHT22;1158;48.750;9.078;2023-05-06T08:56:23;20.80;97.20
2300;DHT22;1158;48.750;9.078;2023-05-06T08:58:54;20.00;97.40
2300;DHT22;1158;48.750;9.078;2023-05-06T09:01:23;19.60;97.50
2300;DHT22;1158;48.750;9.078;2023-05-06T09:03:50;19.70;98.50
2300;DHT22;1158;48.750;9.078;2023-05-06T09:06:19;20.00;98.50
2300;DHT22;1158;48.750;9.078;2023-05-06T09:08:45;20.30;98.30
2300;DHT22;1158;48.750;9.078;2023-05-06T09:11:23;20.80;97.50
2300;DHT22;1158;48.750;9.078;2023-05-06T09:13:51;21.80;96.70
2300;DHT22;1158;48.750;9.078;2023-05-06T09:16:32;22.70;95.50
2300;DHT22;1158;48.750;9.078;2023-05-06T09:18:58;23.90;95.30
2300;DHT22;1158;48.750;9.078;2023-05-06T09:21:32;25.40;93.40
2300;DHT22;1158;48.750;9.078;2023-05-06T09:24:00;25.60;92.40
2300;DHT22;1158;48.750;9.078;2023-05-06T09:26:28;26.20;91.30
2300;DHT22;1158;48.750;9.078;2023-05-06T09:28:55;26.90;92.10
2300;DHT22;1158;48.750;9.078;2023-05-06T09:31:22;26.50;90.60
2300;DHT22;1158;48.750;9.078;2023-05-06T09:33:50;26.00;91.40
2300;DHT22;1158;48.750;9.078;2023-05-06T09:36:17;25.60;92.00
2300;DHT22;1158;48.750;9.078;2023-05-06T09:39:02;26.20;91.10
2300;DHT22;1158;48.750;9.078;2023-05-06T09:41:38;26.60;90.20
2300;DHT22;1158;48.750;9.078;2023-05-06T09:44:05;27.00;89.40
2300;DHT22;1158;48.750;9.078;2023-05-06T09:46:31;27.30;89.90
2300;DHT22;1158;48.750;9.078;2023-05-06T09:48:58;27.60;88.00
2300;DHT22;1158;48.750;9.078;2023-05-06T09:51:26;27.40;88.00
2300;DHT22;1158;48.750;9.078;2023-05-06T09:53:55;26.80;88.30
2300;DHT22;1158;48.750;9.078;2023-05-06T09:56:22;26.40;88.70
2300;DHT22;1158;48.750;9.078;2023-05-06T09:58:51;24.50;90.60
2300;DHT22;1158;48.750;9.078;2023-05-06T10:01:18;23.50;91.50
2300;DHT22;1158;48.750;9.078;2023-05-06T10:03:45;23.40;92.50
2300;DHT22;1158;48.750;9.078;2023-05-06T10:06:12;23.10;92.90
2300;DHT22;1158;48.750;9.078;2023-05-06T10:08:40;22.70;93.50
2300;DHT22;1158;48.750;9.078;2023-05-06T10:11:13;22.30;93.40
2300;DHT22;1158;48.750;9.078;2023-05-06T10:13:41;22.40;93.40
2300;DHT22;1158;48.750;9.078;2023-05-06T10:16:09;22.30;93.50
2300;DHT22;1158;48.750;9.078;2023-05-06T10:18:36;22.40;93.80
2300;DHT22;1158;48.750;9.078;2023-05-06T10:21:14;22.60;93.60
2300;DHT22;1158;48.750;9.078;2023-05-06T10:23:43;22.70;93.00
2300;DHT22;1158;48.750;9.078;2023-05-06T10:26:11;23.50;91.90
2300;DHT22;1158;48.750;9.078;2023-05-06T10:28:41;25.10;92.60
2300;DHT22;1158;48.750;9.078;2023-05-06T10:31:10;26.40;90.10
2300;DHT22;1158;48.750;9.078;2023-05-06T10:33:38;26.80;88.80
2300;DHT22;1158;48.750;9.078;2023-05-06T10:36:12;26.80;88.20
2300;DHT22;1158;48.750;9.078;2023-05-06T10:38:42;27.20;86.10
2300;DHT22;1158;48.750;9.078;2023-05-06T10:41:10;28.00;85.90
2300;DHT22;1158;48.750;9.078;2023-05-06T10:43:39;27.50;85.60
2300;DHT22;1158;48.750;9.078;2023-05-06T10:46:08;27.10;86.00
2300;DHT22;1158;48.750;9.078;2023-05-06T10:48:36;26.90;87.10
2300;DHT22;1158;48.750;9.078;2023-05-06T10:51:23;26.70;87.80
2300;DHT22;1158;48.750;9.078;2023-05-06T10:54:04;27.00;85.50
2300;DHT22;1158;48.750;9.078;2023-05-06T10:56:34;27.30;82.10
2300;DHT22;1158;48.750;9.078;2023-05-06T10:59:04;27.50;81.40
2300;DHT22;1158;48.750;9.078;2023-05-06T11:01:32;27.10;79.70
2300;DHT22;1158;48.750;9.078;2023-05-06T11:04:04;25.60;81.00
2300;DHT22;1158;48.750;9.078;2023-05-06T11:06:42;25.80;83.40
2300;DHT22;1158;48.750;9.078;2023-05-06T11:09:18;26.20;83.40
2300;DHT22;1158;48.750;9.078;2023-05-06T11:11:51;26.40;80.70
2300;DHT22;1158;48.750;9.078;2023-05-06T11:14:26;26.40;83.80
2300;DHT22;1158;48.750;9.078;2023-05-06T11:16:54;27.40;82.50
2300;DHT22;1158;48.750;9.078;2023-05-06T11:19:23;27.90;82.40
2300;DHT22;1158;48.750;9.078;2023-05-06T11:21:50;28.60;82.10
2300;DHT22;1158;48.750;9.078;2023-05-06T11:24:22;28.30;82.40
2300;DHT22;1158;48.750;9.078;2023-05-06T11:26:51;26.40;82.20
2300;DHT22;1158;48.750;9.078;2023-05-06T11:29:18;26.10;84.10
2300;DHT22;1158;48.750;9.078;2023-05-06T11:31:45;25.70;84.90
2300;DHT22;1158;48.750;9.078;2023-05-06T11:34:21;25.10;85.80
2300;DHT22;1158;48.750;9.078;2023-05-06T11:36:56;24.30;84.50
2300;DHT22;1158;48.750;9.078;2023-05-06T11:39:24;24.20;85.70
2300;DHT22;1158;48.750;9.078;2023-05-06T11:41:56;23.90;86.80
2300;DHT22;1158;48.750;9.078;2023-05-06T11:44:25;24.00;88.40
2300;DHT22;1158;48.750;9.078;2023-05-06T11:46:55;23.90;85.50
2300;DHT22;1158;48.750;9.078;2023-05-06T11:49:23;23.70;87.40
2300;DHT22;1158;48.750;9.078;2023-05-06T11:51:50;23.40;90.10
2300;DHT22;1158;48.750;9.078;2023-05-06T11:54:17;23.10;90.00
2300;DHT22;1158;48.750;9.078;2023-05-06T11:56:49;23.00;88.30
2300;DHT22;1158;48.750;9.078;2023-05-06T11:59:26;22.70;89.80
2300;DHT22;1158;48.750;9.078;2023-05-06T12:01:53;22.60;90.00
2300;DHT22;1158;48.750;9.078;2023-05-06T12:04:19;23.20;87.50
2300;DHT22;1158;48.750;9.078;2023-05-06T12:06:46;24.10;87.60
2300;DHT22;1158;48.750;9.078;2023-05-06T12:09:14;25.10;86.70
2300;DHT22;1158;48.750;9.078;2023-05-06T12:11:42;26.40;83.20
2300;DHT22;1158;48.750;9.078;2023-05-06T12:14:09;26.60;81.80
2300;DHT22;1158;48.750;9.078;2023-05-06T12:16:38;26.20;83.00
2300;DHT22;1158;48.750;9.078;2023-05-06T12:19:05;25.40;81.50
2300;DHT22;1158;48.750;9.078;2023-05-06T12:21:36;25.40;82.20
2300;DHT22;1158;48.750;9.078;2023-05-06T12:24:03;26.10;81.00
2300;DHT22;1158;48.750;9.078;2023-05-06T12:26:41;27.20;80.70
2300;DHT22;1158;48.750;9.078;2023-05-06T12:29:09;27.00;80.60
2300;DHT22;1158;48.750;9.078;2023-05-06T12:31:38;27.80;80.10
2300;DHT22;1158;48.750;9.078;2023-05-06T12:34:05;27.70;79.70
2300;DHT22;1158;48.750;9.078;2023-05-06T12:36:32;27.40;83.80
2300;DHT22;1158;48.750;9.078;2023-05-06T12:39:04;28.10;80.30
2300;DHT22;1158;48.750;9.078;2023-05-06T12:41:36;28.00;78.20
2300;DHT22;1158;48.750;9.078;2023-05-06T12:44:03;28.20;81.10
2300;DHT22;1158;48.750;9.078;2023-05-06T12:46:51;28.50;78.50
2300;DHT22;1158;48.750;9.078;2023-05-06T12:49:18;29.30;78.80
2300;DHT22;1158;48.750;9.078;2023-05-06T12:51:44;28.90;77.80
2300;DHT22;1158;48.750;9.078;2023-05-06T12:54:29;28.70;78.00
2300;DHT22;1158;48.750;9.078;2023-05-06T12:56:56;27.90;78.40
2300;DHT22;1158;48.750;9.078;2023-05-06T12:59:23;25.10;81.90
2300;DHT22;1158;48.750;9.078;2023-05-06T13:01:51;25.30;85.70
2300;DHT22;1158;48.750;9.078;2023-05-06T13:04:18;25.40;82.80
2300;DHT22;1158;48.750;9.078;2023-05-06T13:06:45;24.30;87.40
2300;DHT22;1158;48.750;9.078;2023-05-06T13:09:12;24.60;85.30
2300;DHT22;1158;48.750;9.078;2023-05-06T13:11:38;23.90;87.80
2300;DHT22;1158;48.750;9.078;2023-05-06T13:14:05;24.70;86.50
2300;DHT22;1158;48.750;9.078;2023-05-06T13:16:32;25.00;85.20
2300;DHT22;1158;48.750;9.078;2023-05-06T13:19:02;24.90;85.00
2300;DHT22;1158;48.750;9.078;2023-05-06T13:21:29;24.60;86.10
2300;DHT22;1158;48.750;9.078;2023-05-06T13:23:57;24.60;85.40
2300;DHT22;1158;48.750;9.078;2023-05-06T13:26:24;25.00;86.20
2300;DHT22;1158;48.750;9.078;2023-05-06T13:28:51;24.60;85.30
2300;DHT22;1158;48.750;9.078;2023-05-06T13:31:18;24.40;86.00
2300;DHT22;1158;48.750;9.078;2023-05-06T13:33:46;24.40;88.40
2300;DHT22;1158;48.750;9.078;2023-05-06T13:36:14;24.80;85.70
2300;DHT22;1158;48.750;9.078;2023-05-06T13:38:41;25.90;83.90
2300;DHT22;1158;48.750;9.078;2023-05-06T13:41:08;27.30;83.00
2300;DHT22;1158;48.750;9.078;2023-05-06T13:43:34;28.10;79.40
2300;DHT22;1158;48.750;9.078;2023-05-06T13:46:01;26.90;81.00
2300;DHT22;1158;48.750;9.078;2023-05-06T13:48:28;27.70;82.30
2300;DHT22;1158;48.750;9.078;2023-05-06T13:50:55;28.10;80.10
2300;DHT22;1158;48.750;9.078;2023-05-06T13:53:23;28.60;78.10
2300;DHT22;1158;48.750;9.078;2023-05-06T13:55:49;28.20;78.30
2300;DHT22;1158;48.750;9.078;2023-05-06T13:58:16;26.80;78.50
2300;DHT22;1158;48.750;9.078;2023-05-06T14:00:43;25.80;81.90
2300;DHT22;1158;48.750;9.078;2023-05-06T14:03:10;25.30;83.40
2300;DHT22;1158;48.750;9.078;2023-05-06T14:05:36;25.40;83.50
2300;DHT22;1158;48.750;9.078;2023-05-06T14:08:03;25.50;84.70
2300;DHT22;1158;48.750;9.078;2023-05-06T14:10:32;25.60;83.20
2300;DHT22;1158;48.750;9.078;2023-05-06T14:12:58;26.90;82.90
2300;DHT22;1158;48.750;9.078;2023-05-06T14:15:25;27.60;78.30
2300;DHT22;1158;48.750;9.078;2023-05-06T14:17:52;27.70;80.70
2300;DHT22;1158;48.750;9.078;2023-05-06T14:20:18;27.70;78.80
2300;DHT22;1158;48.750;9.078;2023-05-06T14:22:46;27.60;79.10
2300;DHT22;1158;48.750;9.078;2023-05-06T14:25:13;27.90;77.20
2300;DHT22;1158;48.750;9.078;2023-05-06T14:27:41;27.70;78.70
2300;DHT22;1158;48.750;9.078;2023-05-06T14:30:10;27.50;77.70
2300;DHT22;1158;48.750;9.078;2023-05-06T14:32:37;28.00;76.50
2300;DHT22;1158;48.750;9.078;2023-05-06T14:35:04;28.30;78.00
2300;DHT22;1158;48.750;9.078;2023-05-06T14:37:31;28.40;79.00
2300;DHT22;1158;48.750;9.078;2023-05-06T14:39:58;28.30;76.60
2300;DHT22;1158;48.750;9.078;2023-05-06T14:42:25;27.40;77.00
2300;DHT22;1158;48.750;9.078;2023-05-06T14:44:53;27.80;77.80
2300;DHT22;1158;48.750;9.078;2023-05-06T14:47:19;28.20;77.80
2300;DHT22;1158;48.750;9.078;2023-05-06T14:49:46;27.80;76.90
2300;DHT22;1158;48.750;9.078;2023-05-06T14:52:13;27.50;76.90
2300;DHT22;1158;48.750;9.078;2023-05-06T14:54:41;27.50;77.00
2300;DHT22;1158;48.750;9.078;2023-05-06T14:57:09;27.50;78.20
2300;DHT22;1158;48.750;9.078;2023-05-06T14:59:36;27.40;76.70
2300;DHT22;1158;48.750;9.078;2023-05-06T15:02:06;27.00;78.00
2300;DHT22;1158;48.750;9.078;2023-05-06T15:04:34;26.40;78.00
2300;DHT22;1158;48.750;9.078;2023-05-06T15:07:00;25.60;79.50
2300;DHT22;1158;48.750;9.078;2023-05-06T15:09:27;25.30;80.10
2300;DHT22;1158;48.750;9.078;2023-05-06T15:11:54;24.90;82.30
2300;DHT22;1158;48.750;9.078;2023-05-06T15:14:21;25.60;81.60
2300;DHT22;1158;48.750;9.078;2023-05-06T15:16:47;25.90;80.00
2300;DHT22;1158;48.750;9.078;2023-05-06T15:19:15;26.20;79.80
2300;DHT22;1158;48.750;9.078;2023-05-06T15:21:42;26.60;78.80
2300;DHT22;1158;48.750;9.078;2023-05-06T15:24:09;26.90;77.40
2300;DHT22;1158;48.750;9.078;2023-05-06T15:26:36;26.90;78.50
2300;DHT22;1158;48.750;9.078;2023-05-06T15:29:03;26.80;77.60
2300;DHT22;1158;48.750;9.078;2023-05-06T15:31:31;26.30;77.50
2300;DHT22;1158;48.750;9.078;2023-05-06T15:34:03;25.80;78.80
2300;DHT22;1158;48.750;9.078;2023-05-06T15:36:31;25.90;79.40
2300;DHT22;1158;48.750;9.078;2023-05-06T15:38:59;25.70;78.20
2300;DHT22;1158;48.750;9.078;2023-05-06T15:41:26;25.50;79.70
2300;DHT22;1158;48.750;9.078;2023-05-06T15:43:54;24.90;80.70
2300;DHT22;1158;48.750;9.078;2023-05-06T15:46:21;25.70;79.60
2300;DHT22;1158;48.750;9.078;2023-05-06T15:48:48;25.60;79.90
2300;DHT22;1158;48.750;9.078;2023-05-06T15:51:15;25.70;78.50
2300;DHT22;1158;48.750;9.078;2023-05-06T15:53:43;25.30;79.60
2300;DHT22;1158;48.750;9.078;2023-05-06T15:56:13;24.60;79.70
2300;DHT22;1158;48.750;9.078;2023-05-06T15:58:42;24.00;81.70
2300;DHT22;1158;48.750;9.078;2023-05-06T16:01:09;23.90;82.20
2300;DHT22;1158;48.750;9.078;2023-05-06T16:03:36;23.90;82.10
2300;DHT22;1158;48.750;9.078;2023-05-06T16:06:05;23.60;81.70
2300;DHT22;1158;48.750;9.078;2023-05-06T16:08:32;23.60;82.10